sensor_id;sensor_type;location;lat;lon;timestamp;temperature;humidity
20815;DHT22;10568;48.176;16.316;2022-11-30T00:00:19;2.30;99.90
20815;DHT22;10568;48.176;16.316;2022-11-30T00:02:45;2.20;99.90
20815;DHT22;10568;48.176;16.316;2022-11-30T00:05:12;2.20;99.90
20815;DHT22;10568;48.176;16.316;2022-11-30T00:07:38;2.10;99.90
20815;DHT22;10568;48.176;16.316;2022-11-30T00:10:05;2.10;99.90
20815;DHT22;10568;48.176;16.316;2022-11-30T00:12:31;2.10;99.90
20815;DHT22;10568;48.176;16.316;2022-11-30T00:14:58;2.10;99.90
20815;DHT22;10568;48.176;16.316;2022-11-30T00:17:24;2.00;99.90
20815;DHT22;10568;48.176;16.316;2022-11-30T00:19:49;2.00;99.90
20815;DHT22;10568;48.176;16.316;2022-11-30T00:22:15;1.90;99.90
20815;DHT22;10568;48.176;16.316;2022-11-30T00:24:41;1.90;99.90
20815;DHT22;10568;48.176;16.316;2022-11-30T00:27:07;1.80;99.90
20815;DHT22;10568;48.176;16.316;2022-11-30T00:29:32;1.80;99.90
20815;DHT22;10568;48.176;16.316;2022-11-30T00:31:58;1.80;99.90
20815;DHT22;10568;48.176;16.316;2022-11-30T00:34:24;1.70;99.90
20815;DHT22;10568;48.176;16.316;2022-11-30T00:36:50;1.60;99.90
20815;DHT22;10568;48.176;16.316;2022-11-30T00:39:15;1.60;99.90
20815;DHT22;10568;48.176;16.316;2022-11-30T00:41:41;1.60;99.90
20815;DHT22;10568;48.176;16.316;2022-11-30T00:44:07;1.60;99.90
20815;DHT22;10568;48.176;16.316;2022-11-30T00:46:33;1.60;99.90
20815;DHT22;10568;48.176;16.316;2022-11-30T00:48:58;1.60;99.90
20815;DHT22;10568;48.176;16.316;2022-11-30T00:51:24;1.60;99.90
20815;DHT22;10568;48.176;16.316;2022-11-30T00:53:50;1.70;99.90
20815;DHT22;10568;48.176;16.316;2022-11-30T00:56:16;1.70;99.90
20815;DHT22;10568;48.176;16.316;2022-11-30T00:58:42;1.70;99.90
20815;DHT22;10568;48.176;16.316;2022-11-30T01:01:08;1.80;99.90
20815;DHT22;10568;48.176;16.316;2022-11-30T01:03:34;1.80;99.90
20815;DHT22;10568;48.176;16.316;2022-11-30T01:06:05;1.90;99.90
20815;DHT22;10568;48.176;16.316;2022-11-30T01:08:32;1.90;99.90
20815;DHT22;10568;48.176;16.316;2022-11-30T01:11:05;2.00;99.90
20815;DHT22;10568;48.176;16.316;2022-11-30T01:13:32;2.10;99.90
20815;DHT22;10568;48.176;16.316;2022-11-30T01:15:58;2.10;99.90
20815;DHT22;10568;48.176;16.316;2022-11-30T01:18:24;2.20;99.90
20815;DHT22;10568;48.176;16.316;2022-11-30T01:20:50;2.20;99.90
20815;DHT22;10568;48.176;16.316;2022-11-30T01:23:15;2.20;99.90
20815;DHT22;10568;48.176;16.316;2022-11-30T01:25:41;2.30;99.90
20815;DHT22;10568;48.176;16.316;2022-11-30T01:28:08;2.30;99.90
20815;DHT22;10568;48.176;16.316;2022-11-30T01:30:34;2.40;99.90
20815;DHT22;10568;48.176;16.316;2022-11-30T01:33:04;2.40;99.90
20815;DHT22;10568;48.176;16.316;2022-11-30T01:35:30;2.40;99.90
20815;DHT22;10568;48.176;16.316;2022-11-30T01:37:56;2.40;99.90
20815;DHT22;10568;48.176;16.316;2022-11-30T01:40:22;2.50;99.90
20815;DHT22;10568;48.176;16.316;2022-11-30T01:42:47;2.50;99.90
20815;DHT22;10568;48.176;16.316;2022-11-30T01:45:13;2.50;99.90
20815;DHT22;10568;48.176;16.316;2022-11-30T01:47:43;2.50;99.90
20815;DHT22;10568;48.176;16.316;2022-11-30T01:50:19;2.50;99.90
20815;DHT22;10568;48.176;16.316;2022-11-30T01:52:50;2.60;99.90
20815;DHT22;10568;48.176;16.316;2022-11-30T01:55:30;2.50;99.90
20815;DHT22;10568;48.176;16.316;2022-11-30T01:58:05;2.50;99.90
20815;DHT22;10568;48.176;16.316;2022-11-30T02:00:32;2.50;99.90
20815;DHT22;10568;48.176;16.316;2022-11-30T02:03:05;2.60;99.90
20815;DHT22;10568;48.176;16.316;2022-11-30T02:05:39;2.60;99.90
20815;DHT22;10568;48.176;16.316;2022-11-30T02:08:07;2.60;99.90
20815;DHT22;10568;48.176;16.316;2022-11-30T02:10:37;2.70;99.90
20815;DHT22;10568;48.176;16.316;2022-11-30T02:16:22;2.60;99.90
20815;DHT22;10568;48.176;16.316;2022-11-30T02:19:26;2.70;99.90
20815;DHT22;10568;48.176;16.316;2022-11-30T02:30:29;2.60;99.90
20815;DHT22;10568;48.176;16.316;2022-11-30T02:33:18;2.60;99.90
20815;DHT22;10568;48.176;16.316;2022-11-30T02:35:49;2.60;99.90
20815;DHT22;10568;48.176;16.316;2022-11-30T02:38:20;2.70;99.90
20815;DHT22;10568;48.176;16.316;2022-11-30T02:40:47;2.70;99.90
20815;DHT22;10568;48.176;16.316;2022-11-30T02:43:14;2.70;99.90
20815;DHT22;10568;48.176;16.316;2022-11-30T02:46:22;2.60;99.90
20815;DHT22;10568;48.176;16.316;2022-11-30T02:51:31;2.60;99.90
20815;DHT22;10568;48.176;16.316;2022-11-30T02:53:58;2.60;99.90
20815;DHT22;10568;48.176;16.316;2022-11-30T02:56:24;2.60;99.90
20815;DHT22;10568;48.176;16.316;2022-11-30T02:58:50;2.60;99.90
20815;DHT22;10568;48.176;16.316;2022-11-30T03:01:17;2.60;99.90
20815;DHT22;10568;48.176;16.316;2022-11-30T03:03:42;2.60;99.90
20815;DHT22;10568;48.176;16.316;2022-11-30T03:06:09;2.70;99.90
20815;DHT22;10568;48.176;16.316;2022-11-30T03:08:35;2.70;99.90
20815;DHT22;10568;48.176;16.316;2022-11-30T03:11:02;2.60;99.90
20815;DHT22;10568;48.176;16.316;2022-11-30T03:13:30;2.60;99.90
20815;DHT22;10568;48.176;16.316;2022-11-30T03:15:56;2.50;99.90
20815;DHT22;10568;48.176;16.316;2022-11-30T03:18:22;2.60;99.90
20815;DHT22;10568;48.176;16.316;2022-11-30T03:20:47;2.60;99.90
20815;DHT22;10568;48.176;16.316;2022-11-30T03:23:13;2.60;99.90
20815;DHT22;10568;48.176;16.316;2022-11-30T03:25:39;2.60;99.90
20815;DHT22;10568;48.176;16.316;2022-11-30T03:28:05;2.60;99.90
20815;DHT22;10568;48.176;16.316;2022-11-30T03:30:30;2.60;99.90
20815;DHT22;10568;48.176;16.316;2022-11-30T03:32:56;2.50;99.90
20815;DHT22;10568;48.176;16.316;2022-11-30T03:35:22;2.60;99.90
20815;DHT22;10568;48.176;16.316;2022-11-30T03:37:48;2.50;99.90
20815;DHT22;10568;48.176;16.316;2022-11-30T03:40:13;2.50;99.90
20815;DHT22;10568;48.176;16.316;2022-11-30T03:42:39;2.60;99.90
20815;DHT22;10568;48.176;16.316;2022-11-30T03:45:05;2.60;99.90
20815;DHT22;10568;48.176;16.316;2022-11-30T03:47:31;2.60;99.90
20815;DHT22;10568;48.176;16.316;2022-11-30T03:49:57;2.50;99.90
20815;DHT22;10568;48.176;16.316;2022-11-30T03:52:23;2.50;99.90
20815;DHT22;10568;48.176;16.316;2022-11-30T03:54:48;2.60;99.90
20815;DHT22;10568;48.176;16.316;2022-11-30T03:57:14;2.50;99.90
20815;DHT22;10568;48.176;16.316;2022-11-30T03:59:40;2.50;99.90
20815;DHT22;10568;48.176;16.316;2022-11-30T04:02:06;2.50;99.90
20815;DHT22;10568;48.176;16.316;2022-11-30T04:04:31;2.50;99.90
20815;DHT22;10568;48.176;16.316;2022-11-30T04:06:57;2.50;99.90
20815;DHT22;10568;48.176;16.316;2022-11-30T04:09:23;2.60;99.90
20815;DHT22;10568;48.176;16.316;2022-11-30T04:11:48;2.50;99.90
20815;DHT22;10568;48.176;16.316;2022-11-30T04:14:14;2.60;99.90
20815;DHT22;10568;48.176;16.316;2022-11-30T04:16:40;2.60;99.90
20815;DHT22;10568;48.176;16.316;2022-11-30T04:22:28;2.70;99.90
20815;DHT22;10568;48.176;16.316;2022-11-30T04:24:53;2.70;99.90
20815;DHT22;10568;48.176;16.316;2022-11-30T04:27:19;2.70;99.90
20815;DHT22;10568;48.176;16.316;2022-11-30T04:29:45;2.70;99.90
20815;DHT22;10568;48.176;16.316;2022-11-30T04:32:10;2.60;99.90
20815;DHT22;10568;48.176;16.316;2022-11-30T04:34:36;2.70;99.90
20815;DHT22;10568;48.176;16.316;2022-11-30T04:37:02;2.70;99.90
20815;DHT22;10568;48.176;16.316;2022-11-30T04:39:28;2.70;99.90
20815;DHT22;10568;48.176;16.316;2022-11-30T04:41:53;2.60;99.90
20815;DHT22;10568;48.176;16.316;2022-11-30T04:44:19;2.70;99.90
20815;DHT22;10568;48.176;16.316;2022-11-30T04:46:45;2.60;99.90
20815;DHT22;10568;48.176;16.316;2022-11-30T04:49:11;2.60;99.90
20815;DHT22;10568;48.176;16.316;2022-11-30T04:51:36;2.60;99.90
20815;DHT22;10568;48.176;16.316;2022-11-30T04:54:02;2.70;99.90
20815;DHT22;10568;48.176;16.316;2022-11-30T04:56:28;2.70;99.90
20815;DHT22;10568;48.176;16.316;2022-11-30T04:58:55;2.70;99.90
20815;DHT22;10568;48.176;16.316;2022-11-30T05:01:20;2.70;99.90
20815;DHT22;10568;48.176;16.316;2022-11-30T05:03:46;2.70;99.90
20815;DHT22;10568;48.176;16.316;2022-11-30T05:06:12;2.70;99.90
20815;DHT22;10568;48.176;16.316;2022-11-30T05:08:38;2.70;99.90
20815;DHT22;10568;48.176;16.316;2022-11-30T05:11:04;2.70;99.90
20815;DHT22;10568;48.176;16.316;2022-11-30T05:13:29;2.70;99.90
20815;DHT22;10568;48.176;16.316;2022-11-30T05:15:55;2.70;99.90
20815;DHT22;10568;48.176;16.316;2022-11-30T05:18:21;2.70;99.90
20815;DHT22;10568;48.176;16.316;2022-11-30T05:20:49;2.80;99.90
20815;DHT22;10568;48.176;16.316;2022-11-30T05:23:16;2.80;99.90
20815;DHT22;10568;48.176;16.316;2022-11-30T05:25:42;2.80;99.90
20815;DHT22;10568;48.176;16.316;2022-11-30T05:28:09;2.80;99.90
20815;DHT22;10568;48.176;16.316;2022-11-30T05:30:34;2.80;99.90
20815;DHT22;10568;48.176;16.316;2022-11-30T05:33:00;2.80;99.90
20815;DHT22;10568;48.176;16.316;2022-11-30T05:35:26;2.90;99.90
20815;DHT22;10568;48.176;16.316;2022-11-30T05:37:52;2.80;99.90
20815;DHT22;10568;48.176;16.316;2022-11-30T05:40:17;2.90;99.90
20815;DHT22;10568;48.176;16.316;2022-11-30T05:42:43;2.80;99.90
20815;DHT22;10568;48.176;16.316;2022-11-30T05:45:09;2.90;99.90
20815;DHT22;10568;48.176;16.316;2022-11-30T05:47:35;2.90;99.90
20815;DHT22;10568;48.176;16.316;2022-11-30T05:50:01;2.90;99.90
20815;DHT22;10568;48.176;16.316;2022-11-30T05:52:27;2.90;99.90
20815;DHT22;10568;48.176;16.316;2022-11-30T05:54:53;2.90;99.90
20815;DHT22;10568;48.176;16.316;2022-11-30T05:57:18;2.90;99.90
20815;DHT22;10568;48.176;16.316;2022-11-30T05:59:44;2.90;99.90
20815;DHT22;10568;48.176;16.316;2022-11-30T06:02:10;2.90;99.90
20815;DHT22;10568;48.176;16.316;2022-11-30T06:04:36;2.90;99.90
20815;DHT22;10568;48.176;16.316;2022-11-30T06:07:02;3.00;99.90
20815;DHT22;10568;48.176;16.316;2022-11-30T06:09:29;3.00;99.90
20815;DHT22;10568;48.176;16.316;2022-11-30T06:11:54;3.00;99.90
20815;DHT22;10568;48.176;16.316;2022-11-30T06:14:20;3.00;99.90
20815;DHT22;10568;48.176;16.316;2022-11-30T06:16:46;3.10;99.90
20815;DHT22;10568;48.176;16.316;2022-11-30T06:19:12;3.00;99.90
20815;DHT22;10568;48.176;16.316;2022-11-30T06:21:37;3.00;99.90
20815;DHT22;10568;48.176;16.316;2022-11-30T06:24:03;3.00;99.90
20815;DHT22;10568;48.176;16.316;2022-11-30T06:26:29;3.10;99.90
20815;DHT22;10568;48.176;16.316;2022-11-30T06:28:55;3.00;99.90
20815;DHT22;10568;48.176;16.316;2022-11-30T06:31:21;3.00;99.90
20815;DHT22;10568;48.176;16.316;2022-11-30T06:33:46;3.10;99.90
20815;DHT22;10568;48.176;16.316;2022-11-30T06:36:12;3.10;99.90
20815;DHT22;10568;48.176;16.316;2022-11-30T06:38:38;3.00;99.90
20815;DHT22;10568;48.176;16.316;2022-11-30T06:41:05;3.10;99.90
20815;DHT22;10568;48.176;16.316;2022-11-30T06:43:36;3.10;99.90
20815;DHT22;10568;48.176;16.316;2022-11-30T06:46:02;3.10;99.90
20815;DHT22;10568;48.176;16.316;2022-11-30T06:48:28;3.10;99.90
20815;DHT22;10568;48.176;16.316;2022-11-30T06:50:54;3.10;99.90
20815;DHT22;10568;48.176;16.316;2022-11-30T06:53:20;3.10;99.90
20815;DHT22;10568;48.176;16.316;2022-11-30T06:55:45;3.20;99.90
20815;DHT22;10568;48.176;16.316;2022-11-30T06:58:11;3.20;99.90
20815;DHT22;10568;48.176;16.316;2022-11-30T07:00:37;3.20;99.90
20815;DHT22;10568;48.176;16.316;2022-11-30T07:03:04;3.20;99.90
20815;DHT22;10568;48.176;16.316;2022-11-30T07:05:31;3.30;99.90
20815;DHT22;10568;48.176;16.316;2022-11-30T07:07:59;3.30;99.90
20815;DHT22;10568;48.176;16.316;2022-11-30T07:10:25;3.30;99.90
20815;DHT22;10568;48.176;16.316;2022-11-30T07:12:51;3.30;99.90
20815;DHT22;10568;48.176;16.316;2022-11-30T07:15:17;3.30;99.90
20815;DHT22;10568;48.176;16.316;2022-11-30T07:17:43;3.30;99.90
20815;DHT22;10568;48.176;16.316;2022-11-30T07:20:08;3.30;99.90
20815;DHT22;10568;48.176;16.316;2022-11-30T07:22:34;3.30;99.90
20815;DHT22;10568;48.176;16.316;2022-11-30T07:25:00;3.40;99.90
20815;DHT22;10568;48.176;16.316;2022-11-30T07:27:45;3.40;99.90
20815;DHT22;10568;48.176;16.316;2022-11-30T07:30:11;3.50;99.90
20815;DHT22;10568;48.176;16.316;2022-11-30T07:32:37;3.40;99.90
20815;DHT22;10568;48.176;16.316;2022-11-30T07:35:02;3.50;99.90
20815;DHT22;10568;48.176;16.316;2022-11-30T07:37:28;3.60;99.90
20815;DHT22;10568;48.176;16.316;2022-11-30T07:39:54;3.60;99.90
20815;DHT22;10568;48.176;16.316;2022-11-30T07:42:20;3.60;99.90
20815;DHT22;10568;48.176;16.316;2022-11-30T07:44:48;3.70;99.90
20815;DHT22;10568;48.176;16.316;2022-11-30T07:47:15;3.70;99.90
20815;DHT22;10568;48.176;16.316;2022-11-30T07:49:41;3.80;99.90
20815;DHT22;10568;48.176;16.316;2022-11-30T07:52:07;3.70;99.90
20815;DHT22;10568;48.176;16.316;2022-11-30T07:54:33;3.80;99.90
20815;DHT22;10568;48.176;16.316;2022-11-30T07:56:59;3.80;99.90
20815;DHT22;10568;48.176;16.316;2022-11-30T07:59:25;3.80;99.90
20815;DHT22;10568;48.176;16.316;2022-11-30T08:01:51;3.80;99.90
20815;DHT22;10568;48.176;16.316;2022-11-30T08:04:16;3.80;99.90
20815;DHT22;10568;48.176;16.316;2022-11-30T08:06:42;3.80;99.90
20815;DHT22;10568;48.176;16.316;2022-11-30T08:09:10;3.80;99.90
20815;DHT22;10568;48.176;16.316;2022-11-30T08:11:37;3.90;99.90
20815;DHT22;10568;48.176;16.316;2022-11-30T08:14:03;4.00;99.90
20815;DHT22;10568;48.176;16.316;2022-11-30T08:16:33;4.00;99.90
20815;DHT22;10568;48.176;16.316;2022-11-30T08:19:00;4.10;99.90
20815;DHT22;10568;48.176;16.316;2022-11-30T08:21:26;4.10;99.90
20815;DHT22;10568;48.176;16.316;2022-11-30T08:23:54;4.20;99.90
20815;DHT22;10568;48.176;16.316;2022-11-30T08:29:43;4.20;99.90
20815;DHT22;10568;48.176;16.316;2022-11-30T08:32:08;4.30;99.90
20815;DHT22;10568;48.176;16.316;2022-11-30T08:34:34;4.30;99.90
20815;DHT22;10568;48.176;16.316;2022-11-30T08:37:00;4.30;99.90
20815;DHT22;10568;48.176;16.316;2022-11-30T08:39:26;4.40;99.90
20815;DHT22;10568;48.176;16.316;2022-11-30T08:41:56;4.50;99.90
20815;DHT22;10568;48.176;16.316;2022-11-30T08:44:22;4.50;99.90
20815;DHT22;10568;48.176;16.316;2022-11-30T08:46:48;4.50;99.90
20815;DHT22;10568;48.176;16.316;2022-11-30T08:49:13;4.60;99.90
20815;DHT22;10568;48.176;16.316;2022-11-30T08:51:39;4.70;99.90
20815;DHT22;10568;48.176;16.316;2022-11-30T08:54:05;4.70;99.90
20815;DHT22;10568;48.176;16.316;2022-11-30T08:56:31;4.70;99.90
20815;DHT22;10568;48.176;16.316;2022-11-30T08:59:00;4.80;99.90
20815;DHT22;10568;48.176;16.316;2022-11-30T09:01:26;4.90;99.90
20815;DHT22;10568;48.176;16.316;2022-11-30T09:03:54;4.90;99.90
20815;DHT22;10568;48.176;16.316;2022-11-30T09:06:27;4.90;99.90
20815;DHT22;10568;48.176;16.316;2022-11-30T09:08:55;4.90;99.90
20815;DHT22;10568;48.176;16.316;2022-11-30T09:11:24;5.00;99.90
20815;DHT22;10568;48.176;16.316;2022-11-30T09:14:03;5.10;99.90
20815;DHT22;10568;48.176;16.316;2022-11-30T09:16:30;5.10;99.90
20815;DHT22;10568;48.176;16.316;2022-11-30T09:18:55;5.00;99.90
20815;DHT22;10568;48.176;16.316;2022-11-30T09:21:23;5.10;99.90
20815;DHT22;10568;48.176;16.316;2022-11-30T09:23:49;5.20;99.90
20815;DHT22;10568;48.176;16.316;2022-11-30T09:26:17;5.10;99.90
20815;DHT22;10568;48.176;16.316;2022-11-30T09:28:44;5.20;99.90
20815;DHT22;10568;48.176;16.316;2022-11-30T09:31:16;5.20;99.90
20815;DHT22;10568;48.176;16.316;2022-11-30T09:33:42;5.30;99.90
20815;DHT22;10568;48.176;16.316;2022-11-30T09:36:11;5.40;99.90
20815;DHT22;10568;48.176;16.316;2022-11-30T09:38:37;5.40;99.90
20815;DHT22;10568;48.176;16.316;2022-11-30T09:44:10;5.50;99.90
20815;DHT22;10568;48.176;16.316;2022-11-30T09:46:42;5.60;99.90
20815;DHT22;10568;48.176;16.316;2022-11-30T09:49:16;5.70;99.90
20815;DHT22;10568;48.176;16.316;2022-11-30T09:51:44;5.70;99.90
20815;DHT22;10568;48.176;16.316;2022-11-30T09:54:37;5.80;99.90
20815;DHT22;10568;48.176;16.316;2022-11-30T09:57:26;5.80;99.90
20815;DHT22;10568;48.176;16.316;2022-11-30T10:00:09;5.80;99.90
20815;DHT22;10568;48.176;16.316;2022-11-30T10:02:37;5.80;99.90
20815;DHT22;10568;48.176;16.316;2022-11-30T10:05:14;5.70;99.90
20815;DHT22;10568;48.176;16.316;2022-11-30T10:07:54;5.90;99.90
20815;DHT22;10568;48.176;16.316;2022-11-30T10:10:42;6.00;99.90
20815;DHT22;10568;48.176;16.316;2022-11-30T10:19:02;6.10;99.90
20815;DHT22;10568;48.176;16.316;2022-11-30T10:27:15;6.30;99.90
20815;DHT22;10568;48.176;16.316;2022-11-30T10:29:42;6.20;99.90
20815;DHT22;10568;48.176;16.316;2022-11-30T10:32:20;6.30;99.90
20815;DHT22;10568;48.176;16.316;2022-11-30T10:34:52;6.30;99.90
20815;DHT22;10568;48.176;16.316;2022-11-30T10:37:23;6.40;99.90
20815;DHT22;10568;48.176;16.316;2022-11-30T10:42:45;6.40;99.90
20815;DHT22;10568;48.176;16.316;2022-11-30T10:45:20;6.40;99.90
20815;DHT22;10568;48.176;16.316;2022-11-30T10:50:33;6.30;99.90
20815;DHT22;10568;48.176;16.316;2022-11-30T10:53:00;6.20;99.90
20815;DHT22;10568;48.176;16.316;2022-11-30T10:55:44;6.30;99.90
20815;DHT22;10568;48.176;16.316;2022-11-30T10:58:37;6.40;99.90
20815;DHT22;10568;48.176;16.316;2022-11-30T11:01:06;6.40;99.90
20815;DHT22;10568;48.176;16.316;2022-11-30T11:03:33;6.50;99.90
20815;DHT22;10568;48.176;16.316;2022-11-30T11:06:14;6.50;99.90
20815;DHT22;10568;48.176;16.316;2022-11-30T11:08:44;6.60;99.90
20815;DHT22;10568;48.176;16.316;2022-11-30T11:11:34;6.60;99.90
20815;DHT22;10568;48.176;16.316;2022-11-30T11:14:16;6.60;99.90
20815;DHT22;10568;48.176;16.316;2022-11-30T11:19:45;6.70;99.90
20815;DHT22;10568;48.176;16.316;2022-11-30T11:22:22;6.70;99.90
20815;DHT22;10568;48.176;16.316;2022-11-30T11:24:52;6.70;99.90
20815;DHT22;10568;48.176;16.316;2022-11-30T11:27:38;6.60;99.90
20815;DHT22;10568;48.176;16.316;2022-11-30T11:30:17;6.70;99.90
20815;DHT22;10568;48.176;16.316;2022-11-30T11:33:00;6.60;99.90
20815;DHT22;10568;48.176;16.316;2022-11-30T11:36:11;6.70;99.90
20815;DHT22;10568;48.176;16.316;2022-11-30T11:38:46;6.80;99.90
20815;DHT22;10568;48.176;16.316;2022-11-30T11:41:33;6.80;99.90
20815;DHT22;10568;48.176;16.316;2022-11-30T11:46:58;6.80;99.90
20815;DHT22;10568;48.176;16.316;2022-11-30T11:49:28;6.80;99.90
20815;DHT22;10568;48.176;16.316;2022-11-30T11:52:12;6.90;99.90
20815;DHT22;10568;48.176;16.316;2022-11-30T11:57:40;6.80;99.90
20815;DHT22;10568;48.176;16.316;2022-11-30T12:00:20;6.80;99.90
20815;DHT22;10568;48.176;16.316;2022-11-30T12:08:05;6.80;99.90
20815;DHT22;10568;48.176;16.316;2022-11-30T12:10:54;6.80;99.90
20815;DHT22;10568;48.176;16.316;2022-11-30T12:13:27;6.80;99.90
20815;DHT22;10568;48.176;16.316;2022-11-30T12:22:36;6.80;99.90
20815;DHT22;10568;48.176;16.316;2022-11-30T12:30:48;6.90;99.90
20815;DHT22;10568;48.176;16.316;2022-11-30T12:44:11;7.00;99.90
20815;DHT22;10568;48.176;16.316;2022-11-30T12:58:29;7.10;99.90
20815;DHT22;10568;48.176;16.316;2022-11-30T13:04:52;7.10;99.90
20815;DHT22;10568;48.176;16.316;2022-11-30T13:06:59;7.00;99.90
20815;DHT22;10568;48.176;16.316;2022-11-30T13:09:33;6.90;99.90
20815;DHT22;10568;48.176;16.316;2022-11-30T13:12:06;6.90;99.90
20815;DHT22;10568;48.176;16.316;2022-11-30T13:14:35;7.00;99.90
20815;DHT22;10568;48.176;16.316;2022-11-30T13:17:08;6.90;99.90
20815;DHT22;10568;48.176;16.316;2022-11-30T13:22:42;6.80;99.90
20815;DHT22;10568;48.176;16.316;2022-11-30T13:36:03;6.60;99.90
20815;DHT22;10568;48.176;16.316;2022-11-30T13:38:29;6.70;99.90
20815;DHT22;10568;48.176;16.316;2022-11-30T13:41:00;6.60;99.90
20815;DHT22;10568;48.176;16.316;2022-11-30T13:43:29;6.60;99.90
20815;DHT22;10568;48.176;16.316;2022-11-30T13:46:13;6.60;99.90
20815;DHT22;10568;48.176;16.316;2022-11-30T13:48:42;6.60;99.90
20815;DHT22;10568;48.176;16.316;2022-11-30T13:51:08;6.60;99.90
20815;DHT22;10568;48.176;16.316;2022-11-30T13:56:56;6.50;99.90
20815;DHT22;10568;48.176;16.316;2022-11-30T14:01:53;6.40;99.90
20815;DHT22;10568;48.176;16.316;2022-11-30T14:04:45;6.40;99.90
20815;DHT22;10568;48.176;16.316;2022-11-30T14:07:34;6.40;99.90
20815;DHT22;10568;48.176;16.316;2022-11-30T14:10:00;6.40;99.90
20815;DHT22;10568;48.176;16.316;2022-11-30T14:12:46;6.30;99.90
20815;DHT22;10568;48.176;16.316;2022-11-30T14:21:31;6.30;99.90
20815;DHT22;10568;48.176;16.316;2022-11-30T14:24:05;6.20;99.90
20815;DHT22;10568;48.176;16.316;2022-11-30T14:26:43;6.20;99.90
20815;DHT22;10568;48.176;16.316;2022-11-30T14:29:22;6.20;99.90
20815;DHT22;10568;48.176;16.316;2022-11-30T14:31:59;6.10;99.90
20815;DHT22;10568;48.176;16.316;2022-11-30T14:34:43;6.00;99.90
20815;DHT22;10568;48.176;16.316;2022-11-30T14:37:38;6.00;99.90
20815;DHT22;10568;48.176;16.316;2022-11-30T14:40:06;6.00;99.90
20815;DHT22;10568;48.176;16.316;2022-11-30T14:42:33;5.90;99.90
20815;DHT22;10568;48.176;16.316;2022-11-30T14:45:00;5.90;99.90
20815;DHT22;10568;48.176;16.316;2022-11-30T14:47:31;5.90;99.90
20815;DHT22;10568;48.176;16.316;2022-11-30T14:49:59;5.90;99.90
20815;DHT22;10568;48.176;16.316;2022-11-30T15:00:20;5.80;99.90
20815;DHT22;10568;48.176;16.316;2022-11-30T15:02:47;5.80;99.90
20815;DHT22;10568;48.176;16.316;2022-11-30T15:05:21;5.80;99.90
20815;DHT22;10568;48.176;16.316;2022-11-30T15:07:48;5.70;99.90
20815;DHT22;10568;48.176;16.316;2022-11-30T15:10:50;5.70;99.90
20815;DHT22;10568;48.176;16.316;2022-11-30T15:13:13;5.70;99.90
20815;DHT22;10568;48.176;16.316;2022-11-30T15:15:49;5.60;99.90
20815;DHT22;10568;48.176;16.316;2022-11-30T15:18:17;5.60;99.90
20815;DHT22;10568;48.176;16.316;2022-11-30T15:21:04;5.60;99.90
20815;DHT22;10568;48.176;16.316;2022-11-30T15:23:31;5.50;99.90
20815;DHT22;10568;48.176;16.316;2022-11-30T15:26:01;5.50;99.90
20815;DHT22;10568;48.176;16.316;2022-11-30T15:28:35;5.50;99.90
20815;DHT22;10568;48.176;16.316;2022-11-30T15:31:04;5.40;99.90
20815;DHT22;10568;48.176;16.316;2022-11-30T15:33:48;5.40;99.90
20815;DHT22;10568;48.176;16.316;2022-11-30T15:36:14;5.40;99.90
20815;DHT22;10568;48.176;16.316;2022-11-30T15:38:41;5.30;99.90
20815;DHT22;10568;48.176;16.316;2022-11-30T15:41:22;5.30;99.90
20815;DHT22;10568;48.176;16.316;2022-11-30T15:43:55;5.30;99.90
20815;DHT22;10568;48.176;16.316;2022-11-30T15:46:52;5.30;99.90
20815;DHT22;10568;48.176;16.316;2022-11-30T15:49:29;5.30;99.90
20815;DHT22;10568;48.176;16.316;2022-11-30T15:52:04;5.30;99.90
20815;DHT22;10568;48.176;16.316;2022-11-30T15:55:01;5.20;99.90
20815;DHT22;10568;48.176;16.316;2022-11-30T15:58:00;5.20;99.90
20815;DHT22;10568;48.176;16.316;2022-11-30T16:00:27;5.20;99.90
20815;DHT22;10568;48.176;16.316;2022-11-30T16:03:11;5.20;99.90
20815;DHT22;10568;48.176;16.316;2022-11-30T16:05:39;5.20;99.90
20815;DHT22;10568;48.176;16.316;2022-11-30T16:08:14;5.20;99.90
20815;DHT22;10568;48.176;16.316;2022-11-30T16:10:40;5.20;99.90
20815;DHT22;10568;48.176;16.316;2022-11-30T16:13:15;5.20;99.90
20815;DHT22;10568;48.176;16.316;2022-11-30T16:15:45;5.20;99.90
20815;DHT22;10568;48.176;16.316;2022-11-30T16:18:23;5.20;99.90
20815;DHT22;10568;48.176;16.316;2022-11-30T16:20:51;5.30;99.90
20815;DHT22;10568;48.176;16.316;2022-11-30T16:23:18;5.30;99.90
20815;DHT22;10568;48.176;16.316;2022-11-30T16:25:46;5.30;99.90
20815;DHT22;10568;48.176;16.316;2022-11-30T16:28:14;5.30;99.90
20815;DHT22;10568;48.176;16.316;2022-11-30T16:30:41;5.30;99.90
20815;DHT22;10568;48.176;16.316;2022-11-30T16:33:13;5.30;99.90
20815;DHT22;10568;48.176;16.316;2022-11-30T16:35:40;5.40;99.90
20815;DHT22;10568;48.176;16.316;2022-11-30T16:38:06;5.30;99.90
20815;DHT22;10568;48.176;16.316;2022-11-30T16:40:33;5.40;99.90
20815;DHT22;10568;48.176;16.316;2022-11-30T16:42:59;5.30;99.90
20815;DHT22;10568;48.176;16.316;2022-11-30T16:45:34;5.30;99.90
20815;DHT22;10568;48.176;16.316;2022-11-30T16:48:01;5.30;99.90
20815;DHT22;10568;48.176;16.316;2022-11-30T16:50:27;5.30;99.90
20815;DHT22;10568;48.176;16.316;2022-11-30T16:52:54;5.30;99.90
20815;DHT22;10568;48.176;16.316;2022-11-30T16:55:21;5.30;99.90
20815;DHT22;10568;48.176;16.316;2022-11-30T16:57:48;5.30;99.90
20815;DHT22;10568;48.176;16.316;2022-11-30T17:00:16;5.30;99.90
20815;DHT22;10568;48.176;16.316;2022-11-30T17:05:36;5.40;99.90
20815;DHT22;10568;48.176;16.316;2022-11-30T17:08:02;5.30;99.90
20815;DHT22;10568;48.176;16.316;2022-11-30T17:10:29;5.30;99.90
20815;DHT22;10568;48.176;16.316;2022-11-30T17:12:55;5.30;99.90
20815;DHT22;10568;48.176;16.316;2022-11-30T17:15:22;5.30;99.90
20815;DHT22;10568;48.176;16.316;2022-11-30T17:17:49;5.40;99.90
20815;DHT22;10568;48.176;16.316;2022-11-30T17:20:16;5.40;99.90
20815;DHT22;10568;48.176;16.316;2022-11-30T17:22:42;5.40;99.90
20815;DHT22;10568;48.176;16.316;2022-11-30T17:25:17;5.40;99.90
20815;DHT22;10568;48.176;16.316;2022-11-30T17:27:45;5.40;99.90
20815;DHT22;10568;48.176;16.316;2022-11-30T17:30:13;5.40;99.90
20815;DHT22;10568;48.176;16.316;2022-11-30T17:32:40;5.40;99.90
20815;DHT22;10568;48.176;16.316;2022-11-30T17:35:06;5.40;99.90
20815;DHT22;10568;48.176;16.316;2022-11-30T17:37:33;5.40;99.90
20815;DHT22;10568;48.176;16.316;2022-11-30T17:40:00;5.40;99.90
20815;DHT22;10568;48.176;16.316;2022-11-30T17:42:26;5.40;99.90
20815;DHT22;10568;48.176;16.316;2022-11-30T17:44:52;5.40;99.90
20815;DHT22;10568;48.176;16.316;2022-11-30T17:47:18;5.40;99.90
20815;DHT22;10568;48.176;16.316;2022-11-30T17:49:47;5.40;99.90
20815;DHT22;10568;48.176;16.316;2022-11-30T17:52:13;5.40;99.90
20815;DHT22;10568;48.176;16.316;2022-11-30T17:54:39;5.40;99.90